Hlavní strana
METAR-TAF:

METAR-TAF

Letiště :

Mauricius, Mauritius

zeměpisná šířka: 20-26S, zeměpisná délka: 057-40E, výška: 55 m

Aktuální stav počasí

Zpráva byla vytvořena před 1 hodinou a 2 minutami, v 17:00 UTC
Západoseverozápadní vítr 2 kt
Teplota 25°C
Vlhkost vzduchu 89%
Tlak 1011 hPa
Viditelnost 10 km a více
Skoro jasno ve výšce 1500 ft
Polojasno ve výšce 25000 ft

METAR: FIMP 241700Z 30002KT 9999 FEW015 SCT250 25/23 Q1011

Čas: 22:02 (18:02 UTC)

Předpověď počasí

Zpráva byla vytvořena před 32 minutami, v 17:30 UTC
Předpověď platná od 24 v 18 UTC do 26 v 00 UTC
Západní vítr 5 kt
Viditelnost 10 km a více
Skoro jasno ve výšce 1700 ft
Dočasný
od 24 v 22 UTC do 25 v 03 UTC
Viditelnost: 7000 m
Skoro jasno ve výšce 1000 ft
Oblačno až skoro zataženo ve výšce 1500 ft
slabé dešťové přeháňky
Změna
od 24 v 22 UTC do 25 v 00 UTC
Jihozápadní vítr 10 kt

TAF: FIMP 241730Z 2418/2600 28005KT 9999 FEW017 TEMPO 2422/2503 7000 -SHRA FEW010 BKN015 BECMG 2422/2500 22010KT

Stav a předpovědi počasí z více než 4 000 letišť (zprávy METAR a TAF).

Červené a žluté tečky na mapě představují dostupné meteorologické stanice.

Když kurzor umístíte na tečku, zobrazí se název stanice.

Pak kliknutím zobrazíte stav a předpověď počasí.

Chcete-li změnit mapu, kliknutím na zelené tlačítko se znaménkem +mapu přiblížíte, kliknutím na zelené tlačítko se znaménkem – mapu oddálíte a kliknutím na zelené šipky přejdete na sousední mapy.


METAR-TAF: